sensor_id;sensor_type;location;lat;lon;timestamp;temperature;humidity
25450;DHT22;13371;52.080;5.624;2023-04-01T00:00:20;12.20;99.90
25450;DHT22;13371;52.080;5.624;2023-04-01T00:02:46;12.30;99.90
25450;DHT22;13371;52.080;5.624;2023-04-01T00:05:12;12.30;99.90
25450;DHT22;13371;52.080;5.624;2023-04-01T00:07:39;12.40;99.90
25450;DHT22;13371;52.080;5.624;2023-04-01T00:10:07;12.40;99.90
25450;DHT22;13371;52.080;5.624;2023-04-01T00:12:34;12.40;99.90
25450;DHT22;13371;52.080;5.624;2023-04-01T00:15:00;12.40;99.90
25450;DHT22;13371;52.080;5.624;2023-04-01T00:17:26;12.50;99.90
25450;DHT22;13371;52.080;5.624;2023-04-01T00:19:54;12.60;99.90
25450;DHT22;13371;52.080;5.624;2023-04-01T00:22:20;12.60;99.90
25450;DHT22;13371;52.080;5.624;2023-04-01T00:24:45;12.50;99.90
25450;DHT22;13371;52.080;5.624;2023-04-01T00:27:12;12.60;99.90
25450;DHT22;13371;52.080;5.624;2023-04-01T00:29:37;12.50;99.90
25450;DHT22;13371;52.080;5.624;2023-04-01T00:32:03;12.60;99.90
25450;DHT22;13371;52.080;5.624;2023-04-01T00:34:28;12.60;99.90
25450;DHT22;13371;52.080;5.624;2023-04-01T00:36:54;12.80;99.90
25450;DHT22;13371;52.080;5.624;2023-04-01T00:39:20;12.70;99.90
25450;DHT22;13371;52.080;5.624;2023-04-01T00:41:46;13.00;99.90
25450;DHT22;13371;52.080;5.624;2023-04-01T00:44:26;12.70;99.90
25450;DHT22;13371;52.080;5.624;2023-04-01T00:46:52;12.80;99.90
25450;DHT22;13371;52.080;5.624;2023-04-01T00:49:20;12.70;99.90
25450;DHT22;13371;52.080;5.624;2023-04-01T00:51:48;12.60;99.90
25450;DHT22;13371;52.080;5.624;2023-04-01T00:54:16;12.50;99.90
25450;DHT22;13371;52.080;5.624;2023-04-01T00:56:48;12.60;99.90
25450;DHT22;13371;52.080;5.624;2023-04-01T00:59:21;12.90;99.90
25450;DHT22;13371;52.080;5.624;2023-04-01T01:01:47;12.80;99.90
25450;DHT22;13371;52.080;5.624;2023-04-01T01:04:25;12.60;99.90
25450;DHT22;13371;52.080;5.624;2023-04-01T01:07:07;12.80;99.90
25450;DHT22;13371;52.080;5.624;2023-04-01T01:09:54;12.70;99.90
25450;DHT22;13371;52.080;5.624;2023-04-01T01:12:46;12.70;99.90
25450;DHT22;13371;52.080;5.624;2023-04-01T01:18:03;12.40;99.90
25450;DHT22;13371;52.080;5.624;2023-04-01T01:20:35;12.40;99.90
25450;DHT22;13371;52.080;5.624;2023-04-01T01:31:16;12.40;99.90
25450;DHT22;13371;52.080;5.624;2023-04-01T01:33:50;12.30;99.90
25450;DHT22;13371;52.080;5.624;2023-04-01T01:36:21;12.20;99.90
25450;DHT22;13371;52.080;5.624;2023-04-01T01:38:48;12.00;99.90
25450;DHT22;13371;52.080;5.624;2023-04-01T01:41:16;12.10;99.90
25450;DHT22;13371;52.080;5.624;2023-04-01T01:43:46;12.40;99.90
25450;DHT22;13371;52.080;5.624;2023-04-01T01:46:16;12.30;99.90
25450;DHT22;13371;52.080;5.624;2023-04-01T01:48:43;12.30;99.90
25450;DHT22;13371;52.080;5.624;2023-04-01T01:51:10;12.10;99.90
25450;DHT22;13371;52.080;5.624;2023-04-01T01:53:36;12.30;99.90
25450;DHT22;13371;52.080;5.624;2023-04-01T01:56:02;12.50;99.90
25450;DHT22;13371;52.080;5.624;2023-04-01T01:58:32;12.30;99.90
25450;DHT22;13371;52.080;5.624;2023-04-01T02:01:07;12.20;99.90
25450;DHT22;13371;52.080;5.624;2023-04-01T02:03:36;12.40;99.90
25450;DHT22;13371;52.080;5.624;2023-04-01T02:06:06;12.30;99.90
25450;DHT22;13371;52.080;5.624;2023-04-01T02:08:45;12.50;99.90
25450;DHT22;13371;52.080;5.624;2023-04-01T02:11:15;12.20;99.90
25450;DHT22;13371;52.080;5.624;2023-04-01T02:13:58;12.10;99.90
25450;DHT22;13371;52.080;5.624;2023-04-01T02:19:08;12.30;99.90
25450;DHT22;13371;52.080;5.624;2023-04-01T02:21:36;12.20;99.90
25450;DHT22;13371;52.080;5.624;2023-04-01T02:24:05;12.30;99.90
25450;DHT22;13371;52.080;5.624;2023-04-01T02:26:34;12.40;99.90
25450;DHT22;13371;52.080;5.624;2023-04-01T02:29:01;12.40;99.90
25450;DHT22;13371;52.080;5.624;2023-04-01T02:31:29;12.50;99.90
25450;DHT22;13371;52.080;5.624;2023-04-01T02:33:55;12.60;99.90
25450;DHT22;13371;52.080;5.624;2023-04-01T02:36:20;12.50;99.90
25450;DHT22;13371;52.080;5.624;2023-04-01T02:38:46;12.40;99.90
25450;DHT22;13371;52.080;5.624;2023-04-01T02:41:13;12.50;99.90
25450;DHT22;13371;52.080;5.624;2023-04-01T02:43:38;12.40;99.90
25450;DHT22;13371;52.080;5.624;2023-04-01T02:46:06;12.20;99.90
25450;DHT22;13371;52.080;5.624;2023-04-01T02:48:32;12.10;99.90
25450;DHT22;13371;52.080;5.624;2023-04-01T02:50:57;12.10;99.90
25450;DHT22;13371;52.080;5.624;2023-04-01T02:53:23;12.10;99.90
25450;DHT22;13371;52.080;5.624;2023-04-01T02:55:48;12.20;99.90
25450;DHT22;13371;52.080;5.624;2023-04-01T02:58:17;12.10;99.90
25450;DHT22;13371;52.080;5.624;2023-04-01T03:00:43;12.00;99.90
25450;DHT22;13371;52.080;5.624;2023-04-01T03:03:09;12.10;99.90
25450;DHT22;13371;52.080;5.624;2023-04-01T03:05:34;12.20;99.90
25450;DHT22;13371;52.080;5.624;2023-04-01T03:08:00;12.10;99.90
25450;DHT22;13371;52.080;5.624;2023-04-01T03:10:26;12.10;99.90
25450;DHT22;13371;52.080;5.624;2023-04-01T03:12:52;12.10;99.90
25450;DHT22;13371;52.080;5.624;2023-04-01T03:15:17;12.10;99.90
25450;DHT22;13371;52.080;5.624;2023-04-01T03:17:43;12.00;99.90
25450;DHT22;13371;52.080;5.624;2023-04-01T03:20:09;12.10;99.90
25450;DHT22;13371;52.080;5.624;2023-04-01T03:22:36;11.70;99.90
25450;DHT22;13371;52.080;5.624;2023-04-01T03:25:03;11.70;99.90
25450;DHT22;13371;52.080;5.624;2023-04-01T03:27:28;11.90;99.90
25450;DHT22;13371;52.080;5.624;2023-04-01T03:29:54;11.90;99.90
25450;DHT22;13371;52.080;5.624;2023-04-01T03:32:19;12.00;99.90
25450;DHT22;13371;52.080;5.624;2023-04-01T03:34:45;12.10;99.90
25450;DHT22;13371;52.080;5.624;2023-04-01T03:37:11;12.10;99.90
25450;DHT22;13371;52.080;5.624;2023-04-01T03:39:36;11.80;99.90
25450;DHT22;13371;52.080;5.624;2023-04-01T03:42:02;12.00;99.90
25450;DHT22;13371;52.080;5.624;2023-04-01T03:44:31;12.30;99.90
25450;DHT22;13371;52.080;5.624;2023-04-01T03:46:57;12.20;99.90
25450;DHT22;13371;52.080;5.624;2023-04-01T03:49:23;12.00;99.90
25450;DHT22;13371;52.080;5.624;2023-04-01T03:51:48;12.00;99.90
25450;DHT22;13371;52.080;5.624;2023-04-01T03:54:14;12.10;99.90
25450;DHT22;13371;52.080;5.624;2023-04-01T03:56:39;12.00;99.90
25450;DHT22;13371;52.080;5.624;2023-04-01T03:59:07;12.10;99.90
25450;DHT22;13371;52.080;5.624;2023-04-01T04:01:33;12.40;99.90
25450;DHT22;13371;52.080;5.624;2023-04-01T04:03:58;12.50;99.90
25450;DHT22;13371;52.080;5.624;2023-04-01T04:06:25;12.60;99.90
25450;DHT22;13371;52.080;5.624;2023-04-01T04:08:51;12.60;99.90
25450;DHT22;13371;52.080;5.624;2023-04-01T04:11:17;12.00;99.90
25450;DHT22;13371;52.080;5.624;2023-04-01T04:13:43;12.40;99.90
25450;DHT22;13371;52.080;5.624;2023-04-01T04:16:10;12.20;99.90
25450;DHT22;13371;52.080;5.624;2023-04-01T04:18:36;12.10;99.90
25450;DHT22;13371;52.080;5.624;2023-04-01T04:21:02;12.10;99.90
25450;DHT22;13371;52.080;5.624;2023-04-01T04:23:28;12.00;99.90
25450;DHT22;13371;52.080;5.624;2023-04-01T04:26:04;12.10;99.90
25450;DHT22;13371;52.080;5.624;2023-04-01T04:28:31;12.00;99.90
25450;DHT22;13371;52.080;5.624;2023-04-01T04:30:56;12.30;99.90
25450;DHT22;13371;52.080;5.624;2023-04-01T04:33:23;12.60;99.90
25450;DHT22;13371;52.080;5.624;2023-04-01T04:35:49;12.80;99.90
25450;DHT22;13371;52.080;5.624;2023-04-01T04:38:15;13.00;99.90
25450;DHT22;13371;52.080;5.624;2023-04-01T04:40:42;12.90;99.90
25450;DHT22;13371;52.080;5.624;2023-04-01T04:43:10;13.00;99.90
25450;DHT22;13371;52.080;5.624;2023-04-01T04:45:37;13.10;99.90
25450;DHT22;13371;52.080;5.624;2023-04-01T04:48:03;13.40;99.90
25450;DHT22;13371;52.080;5.624;2023-04-01T04:50:28;13.40;99.90
25450;DHT22;13371;52.080;5.624;2023-04-01T04:52:54;13.30;99.90
25450;DHT22;13371;52.080;5.624;2023-04-01T04:55:20;13.40;99.90
25450;DHT22;13371;52.080;5.624;2023-04-01T04:57:45;13.60;99.90
25450;DHT22;13371;52.080;5.624;2023-04-01T05:00:11;13.30;99.90
25450;DHT22;13371;52.080;5.624;2023-04-01T05:02:37;13.50;99.90
25450;DHT22;13371;52.080;5.624;2023-04-01T05:05:03;13.60;99.90
25450;DHT22;13371;52.080;5.624;2023-04-01T05:07:29;13.70;99.90
25450;DHT22;13371;52.080;5.624;2023-04-01T05:09:55;13.60;99.90
25450;DHT22;13371;52.080;5.624;2023-04-01T05:12:20;13.60;99.90
25450;DHT22;13371;52.080;5.624;2023-04-01T05:14:46;13.70;99.90
25450;DHT22;13371;52.080;5.624;2023-04-01T05:17:12;13.60;99.90
25450;DHT22;13371;52.080;5.624;2023-04-01T05:19:38;13.50;99.90
25450;DHT22;13371;52.080;5.624;2023-04-01T05:22:05;13.50;99.90
25450;DHT22;13371;52.080;5.624;2023-04-01T05:24:31;13.40;99.90
25450;DHT22;13371;52.080;5.624;2023-04-01T05:26:58;13.50;99.90
25450;DHT22;13371;52.080;5.624;2023-04-01T05:29:25;13.50;99.90
25450;DHT22;13371;52.080;5.624;2023-04-01T05:31:50;13.60;99.90
25450;DHT22;13371;52.080;5.624;2023-04-01T05:34:16;13.60;99.90
25450;DHT22;13371;52.080;5.624;2023-04-01T05:36:42;13.60;99.90
25450;DHT22;13371;52.080;5.624;2023-04-01T05:39:08;13.60;99.90
25450;DHT22;13371;52.080;5.624;2023-04-01T05:41:37;13.60;99.90
25450;DHT22;13371;52.080;5.624;2023-04-01T05:44:03;13.60;99.90
25450;DHT22;13371;52.080;5.624;2023-04-01T05:46:30;13.50;99.90
25450;DHT22;13371;52.080;5.624;2023-04-01T05:48:55;13.70;99.90
25450;DHT22;13371;52.080;5.624;2023-04-01T05:51:21;13.70;99.90
25450;DHT22;13371;52.080;5.624;2023-04-01T05:53:47;13.70;99.90
25450;DHT22;13371;52.080;5.624;2023-04-01T05:56:12;13.70;99.90
25450;DHT22;13371;52.080;5.624;2023-04-01T05:58:38;13.80;99.90
25450;DHT22;13371;52.080;5.624;2023-04-01T06:01:06;13.80;99.90
25450;DHT22;13371;52.080;5.624;2023-04-01T06:03:33;13.60;99.90
25450;DHT22;13371;52.080;5.624;2023-04-01T06:05:59;13.70;99.90
25450;DHT22;13371;52.080;5.624;2023-04-01T06:08:27;13.60;99.90
25450;DHT22;13371;52.080;5.624;2023-04-01T06:11:16;13.60;99.90
25450;DHT22;13371;52.080;5.624;2023-04-01T06:19:56;13.50;99.90
25450;DHT22;13371;52.080;5.624;2023-04-01T06:30:29;13.40;99.90
25450;DHT22;13371;52.080;5.624;2023-04-01T06:44:06;13.50;99.90
25450;DHT22;13371;52.080;5.624;2023-04-01T06:46:52;13.30;99.90
25450;DHT22;13371;52.080;5.624;2023-04-01T06:51:58;13.10;99.90
25450;DHT22;13371;52.080;5.624;2023-04-01T06:54:32;13.20;99.90
25450;DHT22;13371;52.080;5.624;2023-04-01T06:57:04;13.20;99.90
25450;DHT22;13371;52.080;5.624;2023-04-01T06:59:35;13.10;99.90
25450;DHT22;13371;52.080;5.624;2023-04-01T07:02:16;13.20;99.90
25450;DHT22;13371;52.080;5.624;2023-04-01T07:04:46;13.20;99.90
25450;DHT22;13371;52.080;5.624;2023-04-01T07:07:39;13.30;99.90
25450;DHT22;13371;52.080;5.624;2023-04-01T07:10:19;13.30;99.90
25450;DHT22;13371;52.080;5.624;2023-04-01T07:12:54;13.30;99.90
25450;DHT22;13371;52.080;5.624;2023-04-01T07:15:25;13.30;99.90
25450;DHT22;13371;52.080;5.624;2023-04-01T07:18:07;13.30;99.90
25450;DHT22;13371;52.080;5.624;2023-04-01T07:20:36;13.20;99.90
25450;DHT22;13371;52.080;5.624;2023-04-01T07:23:06;13.30;99.90
25450;DHT22;13371;52.080;5.624;2023-04-01T07:25:43;13.50;99.90
25450;DHT22;13371;52.080;5.624;2023-04-01T07:28:15;13.50;99.90
25450;DHT22;13371;52.080;5.624;2023-04-01T07:42:09;13.40;99.90
25450;DHT22;13371;52.080;5.624;2023-04-01T07:48:01;13.20;99.90
25450;DHT22;13371;52.080;5.624;2023-04-01T07:50:36;13.00;99.90
25450;DHT22;13371;52.080;5.624;2023-04-01T07:56:09;13.00;99.90
25450;DHT22;13371;52.080;5.624;2023-04-01T07:58:48;13.10;99.90
25450;DHT22;13371;52.080;5.624;2023-04-01T08:02:13;13.40;99.90
25450;DHT22;13371;52.080;5.624;2023-04-01T08:04:28;13.50;99.90
25450;DHT22;13371;52.080;5.624;2023-04-01T08:07:25;13.30;99.90
25450;DHT22;13371;52.080;5.624;2023-04-01T08:13:00;13.40;99.90
25450;DHT22;13371;52.080;5.624;2023-04-01T08:15:36;13.40;99.90
25450;DHT22;13371;52.080;5.624;2023-04-01T08:18:15;13.50;99.90
25450;DHT22;13371;52.080;5.624;2023-04-01T08:21:15;13.60;99.90
25450;DHT22;13371;52.080;5.624;2023-04-01T08:23:52;13.70;99.90
25450;DHT22;13371;52.080;5.624;2023-04-01T08:29:24;13.60;99.90
25450;DHT22;13371;52.080;5.624;2023-04-01T08:32:01;13.60;99.90
25450;DHT22;13371;52.080;5.624;2023-04-01T08:34:39;13.60;99.90
25450;DHT22;13371;52.080;5.624;2023-04-01T08:37:14;13.50;99.90
25450;DHT22;13371;52.080;5.624;2023-04-01T08:45:20;13.60;99.90
25450;DHT22;13371;52.080;5.624;2023-04-01T08:56:18;13.70;99.90
25450;DHT22;13371;52.080;5.624;2023-04-01T09:01:31;13.70;99.90
25450;DHT22;13371;52.080;5.624;2023-04-01T09:09:46;13.80;99.90
25450;DHT22;13371;52.080;5.624;2023-04-01T09:15:47;13.80;99.90
25450;DHT22;13371;52.080;5.624;2023-04-01T09:32:09;14.20;99.90
25450;DHT22;13371;52.080;5.624;2023-04-01T09:38:04;14.00;99.90
25450;DHT22;13371;52.080;5.624;2023-04-01T09:43:46;14.00;99.90
25450;DHT22;13371;52.080;5.624;2023-04-01T09:57:54;14.50;99.90
25450;DHT22;13371;52.080;5.624;2023-04-01T10:06:34;15.10;99.90
25450;DHT22;13371;52.080;5.624;2023-04-01T10:17:56;14.50;99.90
25450;DHT22;13371;52.080;5.624;2023-04-01T10:26:05;14.80;99.90
25450;DHT22;13371;52.080;5.624;2023-04-01T10:28:52;14.90;99.90
25450;DHT22;13371;52.080;5.624;2023-04-01T10:40:19;15.00;99.90
25450;DHT22;13371;52.080;5.624;2023-04-01T10:52:04;14.80;99.90
25450;DHT22;13371;52.080;5.624;2023-04-01T10:54:51;14.80;99.90
25450;DHT22;13371;52.080;5.624;2023-04-01T11:23:03;14.90;99.90
25450;DHT22;13371;52.080;5.624;2023-04-01T11:25:52;15.00;99.90
25450;DHT22;13371;52.080;5.624;2023-04-01T11:31:34;14.70;99.90
25450;DHT22;13371;52.080;5.624;2023-04-01T11:34:07;14.50;99.90
25450;DHT22;13371;52.080;5.624;2023-04-01T11:37:28;14.50;99.90
25450;DHT22;13371;52.080;5.624;2023-04-01T11:40:23;14.60;99.90
25450;DHT22;13371;52.080;5.624;2023-04-01T11:43:02;14.70;99.90
25450;DHT22;13371;52.080;5.624;2023-04-01T11:46:03;14.50;99.90
25450;DHT22;13371;52.080;5.624;2023-04-01T11:48:58;14.20;99.90
25450;DHT22;13371;52.080;5.624;2023-04-01T12:08:13;14.60;99.90
25450;DHT22;13371;52.080;5.624;2023-04-01T12:11:11;14.50;99.90
25450;DHT22;13371;52.080;5.624;2023-04-01T12:14:01;14.50;99.90
25450;DHT22;13371;52.080;5.624;2023-04-01T12:16:41;14.50;99.90
25450;DHT22;13371;52.080;5.624;2023-04-01T12:22:36;14.40;99.90
25450;DHT22;13371;52.080;5.624;2023-04-01T12:27:52;14.50;99.90
25450;DHT22;13371;52.080;5.624;2023-04-01T12:33:24;14.60;99.90
25450;DHT22;13371;52.080;5.624;2023-04-01T12:39:00;14.90;99.90
25450;DHT22;13371;52.080;5.624;2023-04-01T12:41:52;15.10;99.90
25450;DHT22;13371;52.080;5.624;2023-04-01T12:49:34;14.90;99.90
25450;DHT22;13371;52.080;5.624;2023-04-01T12:55:21;14.40;99.90
25450;DHT22;13371;52.080;5.624;2023-04-01T13:12:22;15.20;99.90
25450;DHT22;13371;52.080;5.624;2023-04-01T13:17:53;15.10;99.90
25450;DHT22;13371;52.080;5.624;2023-04-01T13:20:44;15.10;99.90
25450;DHT22;13371;52.080;5.624;2023-04-01T13:26:22;14.90;99.90
25450;DHT22;13371;52.080;5.624;2023-04-01T13:29:13;14.60;99.90
25450;DHT22;13371;52.080;5.624;2023-04-01T13:37:15;15.00;99.90
25450;DHT22;13371;52.080;5.624;2023-04-01T13:40:11;15.00;99.90
25450;DHT22;13371;52.080;5.624;2023-04-01T13:42:49;14.90;99.90
25450;DHT22;13371;52.080;5.624;2023-04-01T13:45:24;14.90;99.90
25450;DHT22;13371;52.080;5.624;2023-04-01T13:48:12;14.90;99.90
25450;DHT22;13371;52.080;5.624;2023-04-01T13:54:09;14.80;99.90
25450;DHT22;13371;52.080;5.624;2023-04-01T14:11:15;14.80;99.90
25450;DHT22;13371;52.080;5.624;2023-04-01T14:19:18;14.60;99.90
25450;DHT22;13371;52.080;5.624;2023-04-01T14:22:05;15.10;99.90
25450;DHT22;13371;52.080;5.624;2023-04-01T14:25:04;15.30;99.90
25450;DHT22;13371;52.080;5.624;2023-04-01T14:33:57;14.50;99.90
25450;DHT22;13371;52.080;5.624;2023-04-01T14:47:08;12.70;99.90
25450;DHT22;13371;52.080;5.624;2023-04-01T14:54:47;12.10;99.90
25450;DHT22;13371;52.080;5.624;2023-04-01T14:57:24;12.20;99.90
25450;DHT22;13371;52.080;5.624;2023-04-01T14:59:53;12.40;99.90
25450;DHT22;13371;52.080;5.624;2023-04-01T15:08:14;12.60;99.90
25450;DHT22;13371;52.080;5.624;2023-04-01T15:10:56;12.60;99.90
25450;DHT22;13371;52.080;5.624;2023-04-01T15:34:39;13.00;99.90
25450;DHT22;13371;52.080;5.624;2023-04-01T15:40:11;12.90;99.90
25450;DHT22;13371;52.080;5.624;2023-04-01T15:42:59;12.70;99.90
25450;DHT22;13371;52.080;5.624;2023-04-01T15:45:38;12.80;99.90
25450;DHT22;13371;52.080;5.624;2023-04-01T15:48:17;12.90;99.90
25450;DHT22;13371;52.080;5.624;2023-04-01T15:56:41;12.50;99.90
25450;DHT22;13371;52.080;5.624;2023-04-01T16:02:22;12.50;99.90
25450;DHT22;13371;52.080;5.624;2023-04-01T16:04:58;12.90;99.90
25450;DHT22;13371;52.080;5.624;2023-04-01T16:10:29;12.90;99.90
25450;DHT22;13371;52.080;5.624;2023-04-01T16:15:49;13.20;99.90
25450;DHT22;13371;52.080;5.624;2023-04-01T16:21:10;12.70;99.90
25450;DHT22;13371;52.080;5.624;2023-04-01T16:23:50;12.60;99.90
25450;DHT22;13371;52.080;5.624;2023-04-01T16:26:30;12.60;99.90
25450;DHT22;13371;52.080;5.624;2023-04-01T16:29:21;13.00;99.90
25450;DHT22;13371;52.080;5.624;2023-04-01T16:37:20;11.90;99.90
25450;DHT22;13371;52.080;5.624;2023-04-01T16:39:53;12.30;99.90
25450;DHT22;13371;52.080;5.624;2023-04-01T16:42:52;11.90;99.90
25450;DHT22;13371;52.080;5.624;2023-04-01T16:45:45;12.20;99.90
25450;DHT22;13371;52.080;5.624;2023-04-01T16:48:21;12.20;99.90
25450;DHT22;13371;52.080;5.624;2023-04-01T16:50:59;12.60;99.90
25450;DHT22;13371;52.080;5.624;2023-04-01T16:53:43;12.50;99.90
25450;DHT22;13371;52.080;5.624;2023-04-01T16:56:24;12.10;99.90
25450;DHT22;13371;52.080;5.624;2023-04-01T17:01:44;11.60;99.90
25450;DHT22;13371;52.080;5.624;2023-04-01T17:04:26;11.30;99.90
25450;DHT22;13371;52.080;5.624;2023-04-01T17:12:49;11.80;99.90
25450;DHT22;13371;52.080;5.624;2023-04-01T17:23:47;11.50;99.90
25450;DHT22;13371;52.080;5.624;2023-04-01T17:32:19;11.80;99.90
25450;DHT22;13371;52.080;5.624;2023-04-01T17:40:34;11.60;99.90
25450;DHT22;13371;52.080;5.624;2023-04-01T17:45:51;11.60;99.90
25450;DHT22;13371;52.080;5.624;2023-04-01T17:51:15;11.40;99.90
25450;DHT22;13371;52.080;5.624;2023-04-01T18:02:47;10.80;99.90
25450;DHT22;13371;52.080;5.624;2023-04-01T18:05:30;11.00;99.90
25450;DHT22;13371;52.080;5.624;2023-04-01T18:11:00;11.40;99.90
25450;DHT22;13371;52.080;5.624;2023-04-01T18:16:51;11.30;99.90
25450;DHT22;13371;52.080;5.624;2023-04-01T18:25:43;11.20;99.90
25450;DHT22;13371;52.080;5.624;2023-04-01T18:31:18;10.80;99.90
25450;DHT22;13371;52.080;5.624;2023-04-01T18:34:02;10.70;99.90
25450;DHT22;13371;52.080;5.624;2023-04-01T18:36:51;10.60;99.90
25450;DHT22;13371;52.080;5.624;2023-04-01T18:39:40;10.70;99.90
25450;DHT22;13371;52.080;5.624;2023-04-01T18:42:22;10.90;99.90
25450;DHT22;13371;52.080;5.624;2023-04-01T18:44:59;11.00;99.90
25450;DHT22;13371;52.080;5.624;2023-04-01T18:53:30;11.00;99.90
25450;DHT22;13371;52.080;5.624;2023-04-01T18:56:01;10.80;99.90
25450;DHT22;13371;52.080;5.624;2023-04-01T18:58:35;10.70;99.90
25450;DHT22;13371;52.080;5.624;2023-04-01T19:01:25;10.60;99.90
25450;DHT22;13371;52.080;5.624;2023-04-01T19:04:14;10.60;99.90
25450;DHT22;13371;52.080;5.624;2023-04-01T19:09:25;10.80;99.90
25450;DHT22;13371;52.080;5.624;2023-04-01T19:12:09;11.10;99.90
25450;DHT22;13371;52.080;5.624;2023-04-01T19:17:37;10.80;99.90
25450;DHT22;13371;52.080;5.624;2023-04-01T19:26:00;10.60;99.90
25450;DHT22;13371;52.080;5.624;2023-04-01T19:31:26;10.60;99.90
25450;DHT22;13371;52.080;5.624;2023-04-01T19:36:49;10.60;99.90
25450;DHT22;13371;52.080;5.624;2023-04-01T19:39:38;10.60;99.90
25450;DHT22;13371;52.080;5.624;2023-04-01T19:42:29;10.40;99.90
25450;DHT22;13371;52.080;5.624;2023-04-01T19:45:31;10.40;99.90
25450;DHT22;13371;52.080;5.624;2023-04-01T19:48:12;10.20;99.90
25450;DHT22;13371;52.080;5.624;2023-04-01T19:50:42;9.90;99.90
25450;DHT22;13371;52.080;5.624;2023-04-01T19:53:25;9.80;99.90
25450;DHT22;13371;52.080;5.624;2023-04-01T20:01:55;9.90;99.90
25450;DHT22;13371;52.080;5.624;2023-04-01T20:04:55;9.60;99.90
25450;DHT22;13371;52.080;5.624;2023-04-01T20:07:36;9.70;99.90
25450;DHT22;13371;52.080;5.624;2023-04-01T20:12:57;9.80;99.90
25450;DHT22;13371;52.080;5.624;2023-04-01T20:18:02;9.90;99.90
25450;DHT22;13371;52.080;5.624;2023-04-01T20:20:30;9.80;99.90
25450;DHT22;13371;52.080;5.624;2023-04-01T20:25:32;9.70;99.90
25450;DHT22;13371;52.080;5.624;2023-04-01T20:44:47;9.70;99.90
25450;DHT22;13371;52.080;5.624;2023-04-01T20:47:54;9.80;99.90
25450;DHT22;13371;52.080;5.624;2023-04-01T20:50:58;9.60;99.90
25450;DHT22;13371;52.080;5.624;2023-04-01T20:53:37;9.70;99.90
25450;DHT22;13371;52.080;5.624;2023-04-01T21:10:41;9.10;99.90
25450;DHT22;13371;52.080;5.624;2023-04-01T21:13:50;9.10;99.90
25450;DHT22;13371;52.080;5.624;2023-04-01T21:16:41;9.20;99.90
25450;DHT22;13371;52.080;5.624;2023-04-01T21:21:49;9.10;99.90
25450;DHT22;13371;52.080;5.624;2023-04-01T21:27:07;8.90;99.90
25450;DHT22;13371;52.080;5.624;2023-04-01T21:47:08;9.00;99.90
25450;DHT22;13371;52.080;5.624;2023-04-01T21:52:38;8.80;99.90
25450;DHT22;13371;52.080;5.624;2023-04-01T22:17:04;8.60;99.90
25450;DHT22;13371;52.080;5.624;2023-04-01T22:25:43;8.90;99.90
25450;DHT22;13371;52.080;5.624;2023-04-01T22:28:21;8.80;99.90
25450;DHT22;13371;52.080;5.624;2023-04-01T22:30:50;8.50;99.90
25450;DHT22;13371;52.080;5.624;2023-04-01T22:33:32;8.50;99.90
25450;DHT22;13371;52.080;5.624;2023-04-01T22:41:36;8.40;99.90
25450;DHT22;13371;52.080;5.624;2023-04-01T22:44:30;8.40;99.90
25450;DHT22;13371;52.080;5.624;2023-04-01T22:50:19;8.20;99.90
25450;DHT22;13371;52.080;5.624;2023-04-01T22:52:50;8.00;99.90
25450;DHT22;13371;52.080;5.624;2023-04-01T22:55:25;8.20;99.90
25450;DHT22;13371;52.080;5.624;2023-04-01T22:58:00;8.50;99.90
25450;DHT22;13371;52.080;5.624;2023-04-01T23:00:33;8.40;99.90
25450;DHT22;13371;52.080;5.624;2023-04-01T23:03:15;8.20;99.90
25450;DHT22;13371;52.080;5.624;2023-04-01T23:05:54;8.30;99.90
25450;DHT22;13371;52.080;5.624;2023-04-01T23:10:58;8.70;99.90
25450;DHT22;13371;52.080;5.624;2023-04-01T23:13:45;8.40;99.90
25450;DHT22;13371;52.080;5.624;2023-04-01T23:16:14;8.40;99.90
25450;DHT22;13371;52.080;5.624;2023-04-01T23:18:54;8.40;99.90
25450;DHT22;13371;52.080;5.624;2023-04-01T23:21:38;8.50;99.90
25450;DHT22;13371;52.080;5.624;2023-04-01T23:24:25;8.40;99.90
25450;DHT22;13371;52.080;5.624;2023-04-01T23:27:04;8.30;99.90
25450;DHT22;13371;52.080;5.624;2023-04-01T23:29:37;8.20;99.90
25450;DHT22;13371;52.080;5.624;2023-04-01T23:32:16;8.30;99.90
25450;DHT22;13371;52.080;5.624;2023-04-01T23:34:47;8.20;99.90
25450;DHT22;13371;52.080;5.624;2023-04-01T23:37:14;8.10;99.90
25450;DHT22;13371;52.080;5.624;2023-04-01T23:39:45;7.90;99.90
25450;DHT22;13371;52.080;5.624;2023-04-01T23:42:23;8.00;99.90
25450;DHT22;13371;52.080;5.624;2023-04-01T23:44:53;7.90;99.90
25450;DHT22;13371;52.080;5.624;2023-04-01T23:47:23;8.20;99.90
25450;DHT22;13371;52.080;5.624;2023-04-01T23:50:03;8.40;99.90
25450;DHT22;13371;52.080;5.624;2023-04-01T23:52:54;8.20;99.90
25450;DHT22;13371;52.080;5.624;2023-04-01T23:55:31;8.40;99.90
